Time;durP1;ratioP1;P1;durP2;ratioP2;P2;SDS_P1;SDS_P2;PMS_P1;PMS_P2;Temp;Humidity;BMP_temperature;BMP_pressure;BME280_temperature;BME280_humidity;BME280_pressure;Samples;Min_cycle;Max_cycle;Signal;HPM_P1;HPM_P2
2022/04/12 00:00:38;;;;;;;12.60;6.10;;;12.10;52.20;;;;;;5019339;28;20429;-85
2022/04/12 00:03:04;;;;;;;8.10;4.80;;;12.10;52.10;;;;;;5020400;28;20183;-86
2022/04/12 00:05:30;;;;;;;7.68;6.38;;;12.10;52.30;;;;;;5019535;28;20693;-85
2022/04/12 00:07:56;;;;;;;6.17;4.90;;;12.10;52.30;;;;;;5020337;28;20187;-86
2022/04/12 00:10:21;;;;;;;5.27;4.77;;;12.00;52.30;;;;;;5020162;28;20301;-86
2022/04/12 00:12:48;;;;;;;8.43;4.50;;;12.00;52.50;;;;;;5002778;28;20428;-86
2022/04/12 00:15:14;;;;;;;6.72;5.00;;;12.00;52.40;;;;;;5034869;28;20566;-85
2022/04/12 00:20:26;;;;;;;6.47;4.25;;;11.90;52.80;;;;;;5019947;28;20166;-86
2022/04/12 00:22:56;;;;;;;6.53;5.03;;;11.90;52.90;;;;;;5017951;28;20186;-86
2022/04/12 00:25:22;;;;;;;6.30;5.70;;;11.90;52.90;;;;;;5018473;28;20209;-85
2022/04/12 00:27:52;;;;;;;6.82;5.43;;;11.80;53.00;;;;;;5018234;28;20182;-84
2022/04/12 00:30:19;;;;;;;7.25;4.80;;;11.80;53.00;;;;;;5018165;28;20202;-85
2022/04/12 00:32:46;;;;;;;7.10;4.88;;;11.80;53.00;;;;;;5019543;28;20202;-86
2022/04/12 00:35:13;;;;;;;8.50;4.50;;;11.70;53.20;;;;;;5018036;28;20246;-85
2022/04/12 00:37:38;;;;;;;8.70;5.40;;;11.70;53.20;;;;;;5018266;28;20614;-86
2022/04/12 00:40:05;;;;;;;6.63;5.17;;;11.70;53.30;;;;;;5001526;28;20193;-86
2022/04/12 00:42:31;;;;;;;7.13;4.57;;;11.70;53.30;;;;;;5018979;28;20425;-85
2022/04/12 00:44:57;;;;;;;11.93;5.75;;;11.70;53.40;;;;;;5017393;28;20218;-86
2022/04/12 00:47:23;;;;;;;9.55;4.85;;;11.70;53.40;;;;;;5017257;28;20178;-86
2022/04/12 00:49:49;;;;;;;6.40;4.10;;;11.70;53.30;;;;;;5017867;28;20256;-85
2022/04/12 00:52:16;;;;;;;7.00;4.70;;;11.60;53.20;;;;;;5017610;28;20604;-86
2022/04/12 00:54:43;;;;;;;6.47;4.57;;;11.60;53.40;;;;;;5044276;28;20189;-86
2022/04/12 00:57:10;;;;;;;7.20;4.30;;;11.60;53.20;;;;;;5029251;28;20265;-86
2022/04/12 00:59:36;;;;;;;5.32;4.55;;;11.60;53.40;;;;;;5040253;28;20205;-86
2022/04/12 01:02:06;;;;;;;7.13;4.83;;;11.60;53.50;;;;;;5040959;28;20646;-86
2022/04/12 01:04:33;;;;;;;4.97;4.50;;;11.60;53.40;;;;;;5042323;28;20443;-86
2022/04/12 01:07:00;;;;;;;8.32;4.70;;;11.50;53.50;;;;;;5040934;28;20190;-86
2022/04/12 01:09:27;;;;;;;7.30;5.13;;;11.50;53.50;;;;;;5043331;28;20233;-85
2022/04/12 01:11:54;;;;;;;6.55;4.63;;;11.50;53.50;;;;;;5049097;28;20174;-85
2022/04/12 01:14:20;;;;;;;7.55;4.38;;;11.50;53.50;;;;;;5039675;28;20194;-86
2022/04/12 01:16:46;;;;;;;9.30;5.18;;;11.50;53.60;;;;;;5038322;28;20178;-86
2022/04/12 01:19:11;;;;;;;4.90;4.43;;;11.50;53.60;;;;;;5039207;28;20179;-86
2022/04/12 01:21:54;;;;;;;4.93;4.00;;;11.50;53.50;;;;;;5043624;28;20182;-83
2022/04/12 01:24:20;;;;;;;8.00;4.30;;;11.50;53.60;;;;;;5040147;28;20438;-86
2022/04/12 01:26:46;;;;;;;9.48;5.18;;;11.50;53.60;;;;;;5023240;28;20202;-87
2022/04/12 01:29:13;;;;;;;6.33;4.43;;;11.50;53.60;;;;;;5006303;28;20203;-85
2022/04/12 01:31:39;;;;;;;7.07;4.65;;;11.50;53.40;;;;;;5027725;28;20189;-84
2022/04/12 01:34:05;;;;;;;5.63;4.70;;;11.50;53.50;;;;;;5026093;28;20233;-87
2022/04/12 01:36:30;;;;;;;8.33;4.70;;;11.50;53.60;;;;;;5022195;28;20456;-85
2022/04/12 01:38:57;;;;;;;6.63;5.10;;;11.50;53.60;;;;;;5022609;28;20186;-86
2022/04/12 01:41:22;;;;;;;8.63;4.93;;;11.50;53.80;;;;;;5022017;28;20179;-87
2022/04/12 01:43:48;;;;;;;7.00;4.60;;;11.40;53.80;;;;;;5021493;28;20233;-86
2022/04/12 01:46:14;;;;;;;9.60;5.27;;;11.40;53.90;;;;;;5021621;28;20195;-86
2022/04/12 01:48:39;;;;;;;7.40;5.23;;;11.40;54.10;;;;;;5020906;28;20420;-85
2022/04/12 01:51:05;;;;;;;4.70;4.00;;;11.40;54.10;;;;;;5022622;28;20174;-86
2022/04/12 01:53:31;;;;;;;8.93;4.20;;;11.30;54.20;;;;;;5022274;28;20183;-87
2022/04/12 01:55:57;;;;;;;5.00;4.30;;;11.30;54.30;;;;;;5022474;28;20194;-86
2022/04/12 01:58:23;;;;;;;5.30;4.50;;;11.20;54.80;;;;;;5023073;28;20179;-87
2022/04/12 02:00:48;;;;;;;5.97;4.77;;;11.30;54.50;;;;;;5021078;28;20413;-86
2022/04/12 02:03:14;;;;;;;6.40;4.53;;;11.30;54.50;;;;;;5021230;28;20468;-86
2022/04/12 02:05:40;;;;;;;5.70;4.80;;;11.30;54.40;;;;;;5021222;28;20199;-85
2022/04/12 02:08:07;;;;;;;9.50;4.63;;;11.20;54.50;;;;;;5020613;28;20647;-86
2022/04/12 02:10:33;;;;;;;5.10;4.68;;;11.20;54.60;;;;;;5020371;28;20225;-86
2022/04/12 02:12:59;;;;;;;6.23;4.83;;;11.20;54.60;;;;;;5019533;28;20178;-85
2022/04/12 02:15:24;;;;;;;4.30;3.20;;;11.10;54.90;;;;;;5020024;28;20194;-85
2022/04/12 02:17:50;;;;;;;5.07;4.30;;;11.10;55.10;;;;;;5019763;28;20429;-86
2022/04/12 02:20:16;;;;;;;6.80;4.30;;;11.20;55.00;;;;;;5019375;28;20209;-86
2022/04/12 02:22:42;;;;;;;7.03;4.43;;;11.10;54.90;;;;;;5022596;28;20178;-86
2022/04/12 02:25:08;;;;;;;8.17;5.07;;;11.10;55.00;;;;;;5022414;28;20649;-86
2022/04/12 02:27:34;;;;;;;7.10;4.43;;;11.10;54.90;;;;;;5023170;28;20429;-85
2022/04/12 02:30:00;;;;;;;6.85;4.53;;;11.10;55.00;;;;;;5024602;28;20202;-86
2022/04/12 02:32:25;;;;;;;6.07;4.40;;;11.00;55.10;;;;;;5024422;28;20174;-86
2022/04/12 02:34:51;;;;;;;5.37;4.73;;;11.00;55.20;;;;;;5040858;28;20202;-84
2022/04/12 02:37:17;;;;;;;6.23;3.70;;;10.90;55.60;;;;;;5025832;28;20182;-87
2022/04/12 02:39:42;;;;;;;9.40;5.70;;;10.90;55.60;;;;;;5038471;28;20236;-87
2022/04/12 02:42:08;;;;;;;6.37;4.03;;;10.90;55.40;;;;;;5036405;28;20202;-86
2022/04/12 02:44:34;;;;;;;4.60;4.20;;;10.90;55.40;;;;;;5038190;28;20584;-86
2022/04/12 02:47:00;;;;;;;9.43;4.57;;;10.90;55.40;;;;;;5035600;28;20228;-86
2022/04/12 02:49:25;;;;;;;7.70;4.70;;;10.90;55.40;;;;;;5023985;28;20214;-86
2022/04/12 02:51:51;;;;;;;5.97;4.90;;;10.90;55.50;;;;;;5026837;28;20206;-86
2022/04/12 02:54:17;;;;;;;4.63;4.17;;;10.90;55.60;;;;;;5000089;28;20214;-85
2022/04/12 02:56:43;;;;;;;6.77;5.00;;;10.80;55.60;;;;;;5001646;28;20417;-84
2022/04/12 02:59:09;;;;;;;5.55;4.88;;;10.70;55.90;;;;;;4999365;28;20839;-85
2022/04/12 03:01:34;;;;;;;7.43;4.77;;;10.70;56.10;;;;;;5001150;28;20195;-85
2022/04/12 03:04:09;;;;;;;5.17;4.60;;;10.70;56.30;;;;;;5016253;28;20182;-85
2022/04/12 03:06:35;;;;;;;6.25;4.25;;;10.70;56.30;;;;;;5045917;28;20200;-84
2022/04/12 03:09:01;;;;;;;7.63;4.67;;;10.60;56.00;;;;;;5034910;28;20218;-85
2022/04/12 03:11:26;;;;;;;6.07;4.70;;;10.70;56.00;;;;;;5027502;28;20182;-85
2022/04/12 03:13:52;;;;;;;5.30;4.07;;;10.70;56.10;;;;;;5019826;28;20405;-85
2022/04/12 03:16:18;;;;;;;5.60;4.30;;;10.60;56.20;;;;;;5020284;28;20237;-85
2022/04/12 03:18:44;;;;;;;5.85;4.05;;;10.70;56.20;;;;;;5020572;28;20204;-86
2022/04/12 03:21:10;;;;;;;4.10;3.70;;;10.70;56.30;;;;;;5022207;28;21247;-86
2022/04/12 03:23:36;;;;;;;4.83;4.40;;;10.80;56.50;;;;;;5020971;28;20425;-86
2022/04/12 03:26:03;;;;;;;7.03;5.10;;;10.70;56.60;;;;;;5019928;28;20252;-86
2022/04/12 03:28:29;;;;;;;6.20;4.25;;;10.80;56.50;;;;;;5020181;28;20654;-87
2022/04/12 03:30:55;;;;;;;5.13;4.40;;;10.90;56.40;;;;;;5021901;28;20174;-85
2022/04/12 03:33:20;;;;;;;9.73;4.90;;;11.00;56.30;;;;;;5020703;28;20429;-86
2022/04/12 03:35:46;;;;;;;7.50;4.97;;;10.90;56.40;;;;;;5004951;28;20238;-86
2022/04/12 03:38:14;;;;;;;5.40;4.70;;;10.90;56.30;;;;;;5023736;28;20179;-86
2022/04/12 03:40:41;;;;;;;8.00;4.80;;;10.80;56.40;;;;;;5027583;28;20677;-86
2022/04/12 03:43:07;;;;;;;8.60;5.47;;;10.80;56.50;;;;;;5027027;28;20221;-86
2022/04/12 03:45:33;;;;;;;5.87;5.27;;;10.80;56.30;;;;;;5027794;28;20218;-86
2022/04/12 03:47:59;;;;;;;5.15;4.30;;;10.80;56.00;;;;;;5021794;28;20191;-86
2022/04/12 03:50:25;;;;;;;7.13;4.43;;;10.80;56.10;;;;;;5019933;28;20266;-86
2022/04/12 03:52:52;;;;;;;5.88;3.80;;;10.70;56.30;;;;;;5019628;28;20174;-86
2022/04/12 03:55:31;;;;;;;6.53;5.55;;;10.60;56.30;;;;;;5035184;28;20282;-87
2022/04/12 03:58:05;;;;;;;4.30;3.90;;;10.60;56.40;;;;;;5021112;28;20170;-86
2022/04/12 04:00:32;;;;;;;6.35;4.82;;;10.60;56.50;;;;;;5036617;28;20186;-86
2022/04/12 04:02:58;;;;;;;5.15;4.55;;;10.60;56.60;;;;;;5037160;28;20849;-85
2022/04/12 04:05:25;;;;;;;4.57;4.18;;;10.50;57.00;;;;;;5018878;28;20211;-87
2022/04/12 04:07:51;;;;;;;7.50;4.20;;;10.60;56.90;;;;;;5018981;28;20182;-86
2022/04/12 04:10:17;;;;;;;6.30;4.68;;;10.60;56.60;;;;;;5018874;28;20583;-86
2022/04/12 04:12:44;;;;;;;5.40;4.38;;;10.60;56.80;;;;;;5023316;28;20174;-86
2022/04/12 04:15:14;;;;;;;5.95;4.35;;;10.60;57.00;;;;;;5005892;28;20202;-86
2022/04/12 04:17:47;;;;;;;5.38;4.38;;;10.60;57.00;;;;;;5022610;28;20195;-87
2022/04/12 04:20:16;;;;;;;6.03;4.75;;;10.70;56.90;;;;;;5023281;28;20182;-86
2022/04/12 04:22:43;;;;;;;5.60;4.85;;;10.60;56.80;;;;;;5022643;28;20867;-87
2022/04/12 04:25:10;;;;;;;5.60;4.72;;;10.60;56.90;;;;;;5022302;28;20293;-87
2022/04/12 04:27:36;;;;;;;6.60;5.13;;;10.50;57.00;;;;;;5023232;28;20213;-85
2022/04/12 04:30:04;;;;;;;9.70;4.90;;;10.50;57.20;;;;;;5025663;28;20207;-85
2022/04/12 04:32:31;;;;;;;7.80;5.07;;;10.40;57.10;;;;;;5009032;28;20449;-86
2022/04/12 04:34:57;;;;;;;7.60;5.07;;;10.40;57.30;;;;;;5025955;28;20315;-85
2022/04/12 04:37:22;;;;;;;6.77;4.70;;;10.30;57.60;;;;;;5025405;28;20689;-86
2022/04/12 04:39:48;;;;;;;5.00;4.50;;;10.30;57.70;;;;;;5025916;28;20205;-86
2022/04/12 04:42:14;;;;;;;8.33;5.53;;;10.30;57.70;;;;;;5025918;28;20171;-86
2022/04/12 04:44:39;;;;;;;6.83;5.30;;;10.30;57.80;;;;;;5029318;28;20233;-86
2022/04/12 04:47:05;;;;;;;6.20;4.93;;;10.30;57.90;;;;;;5025575;28;20432;-85
2022/04/12 04:49:31;;;;;;;7.60;4.60;;;10.20;57.90;;;;;;5023013;28;20752;-86
2022/04/12 04:51:57;;;;;;;7.50;4.93;;;10.20;58.00;;;;;;5024204;28;20202;-86
2022/04/12 04:54:22;;;;;;;7.70;5.67;;;10.20;57.90;;;;;;5026070;28;20711;-84
2022/04/12 04:56:48;;;;;;;5.03;3.97;;;10.20;58.10;;;;;;5027267;28;20718;-85
2022/04/12 04:59:14;;;;;;;5.13;4.43;;;10.20;58.10;;;;;;5031248;28;20271;-85
2022/04/12 05:01:40;;;;;;;6.37;4.83;;;10.10;58.30;;;;;;5023302;28;20430;-84
2022/04/12 05:04:05;;;;;;;7.33;5.83;;;10.20;58.10;;;;;;5023030;28;20555;-85
2022/04/12 05:06:31;;;;;;;6.23;4.93;;;10.30;58.00;;;;;;5022635;28;20496;-85
2022/04/12 05:08:57;;;;;;;7.77;5.30;;;10.30;58.10;;;;;;5023410;28;20666;-84
2022/04/12 05:11:23;;;;;;;7.70;5.33;;;10.30;58.20;;;;;;5023384;28;20171;-86
2022/04/12 05:13:48;;;;;;;8.10;5.47;;;10.30;58.20;;;;;;5021718;28;20198;-85
2022/04/12 05:16:14;;;;;;;8.03;5.10;;;10.30;58.30;;;;;;5021269;28;20314;-86
2022/04/12 05:18:40;;;;;;;10.43;4.80;;;10.30;58.20;;;;;;5022154;28;20855;-86
2022/04/12 05:21:06;;;;;;;6.50;5.30;;;10.30;58.40;;;;;;5025784;28;20968;-85
2022/04/12 05:23:31;;;;;;;5.83;4.73;;;10.40;58.20;;;;;;5026388;28;20174;-85
2022/04/12 05:25:57;;;;;;;5.63;4.03;;;10.40;58.20;;;;;;5023607;28;20434;-86
2022/04/12 05:28:23;;;;;;;6.13;4.50;;;10.50;58.10;;;;;;5021140;28;20240;-84
2022/04/12 05:30:49;;;;;;;6.50;4.83;;;10.50;57.90;;;;;;5022121;28;20662;-85
2022/04/12 05:33:15;;;;;;;9.40;5.77;;;10.60;57.60;;;;;;5021003;28;20422;-86
2022/04/12 05:35:40;;;;;;;4.73;4.20;;;10.60;57.60;;;;;;5022108;28;20441;-85
2022/04/12 05:38:07;;;;;;;12.90;4.70;;;10.60;57.60;;;;;;5020152;28;20722;-84
2022/04/12 05:40:34;;;;;;;4.78;4.20;;;10.70;57.60;;;;;;5021992;28;20413;-85
2022/04/12 05:43:00;;;;;;;5.57;4.43;;;10.70;57.80;;;;;;5023732;28;20533;-87
2022/04/12 05:45:26;;;;;;;5.30;4.78;;;10.80;58.40;;;;;;5009429;28;20218;-85
2022/04/12 05:47:53;;;;;;;8.03;4.77;;;11.00;57.20;;;;;;5022736;28;20196;-85
2022/04/12 05:50:24;;;;;;;7.57;5.55;;;11.10;56.50;;;;;;5021949;28;20519;-85
2022/04/12 05:52:50;;;;;;;5.78;4.85;;;11.10;56.40;;;;;;5021753;28;20235;-84
2022/04/12 05:55:18;;;;;;;8.70;5.00;;;11.00;56.40;;;;;;5022886;28;20199;-85
2022/04/12 05:58:00;;;;;;;8.68;4.97;;;11.00;56.60;;;;;;5025049;28;20185;-85
2022/04/12 06:00:28;;;;;;;7.70;6.43;;;11.30;56.50;;;;;;5022522;28;20217;-83
2022/04/12 06:02:55;;;;;;;9.02;5.40;;;11.70;55.60;;;;;;5021343;28;20647;-85
2022/04/12 06:05:26;;;;;;;11.13;5.90;;;12.20;54.00;;;;;;5021138;28;20732;-85
2022/04/12 06:07:52;;;;;;;11.35;5.90;;;12.50;53.80;;;;;;5023288;28;20531;-84
2022/04/12 06:10:19;;;;;;;11.32;5.45;;;12.90;52.30;;;;;;5023043;28;20209;-87
2022/04/12 06:12:46;;;;;;;13.00;5.15;;;13.20;51.00;;;;;;5020933;28;20364;-85
2022/04/12 06:15:11;;;;;;;6.95;5.00;;;13.50;50.20;;;;;;5021303;28;20210;-88
2022/04/12 06:17:38;;;;;;;7.90;5.07;;;13.70;49.50;;;;;;5022195;28;20193;-86
2022/04/12 06:20:08;;;;;;;8.85;4.72;;;14.10;48.70;;;;;;5007435;28;20221;-85
2022/04/12 06:22:34;;;;;;;9.57;4.85;;;14.20;47.80;;;;;;5042197;28;20170;-84
2022/04/12 06:25:01;;;;;;;6.55;5.05;;;14.40;47.70;;;;;;5028964;28;20205;-85
2022/04/12 06:27:53;;;;;;;8.23;5.25;;;14.70;46.90;;;;;;5028715;28;20189;-86
2022/04/12 06:30:26;;;;;;;6.47;4.45;;;15.20;45.80;;;;;;5037865;28;20317;-85
2022/04/12 06:32:53;;;;;;;8.05;4.80;;;15.50;44.80;;;;;;5023218;28;20167;-85
2022/04/12 06:35:19;;;;;;;8.70;5.40;;;15.40;44.20;;;;;;5024602;28;20274;-84
2022/04/12 06:37:47;;;;;;;5.40;4.70;;;15.40;44.40;;;;;;5029462;28;20174;-84
2022/04/12 06:40:15;;;;;;;6.40;5.22;;;15.50;44.10;;;;;;5030379;28;20183;-86
2022/04/12 06:42:42;;;;;;;4.65;4.10;;;15.70;44.00;;;;;;5005933;28;20569;-86
2022/04/12 06:45:09;;;;;;;9.52;4.72;;;15.60;43.60;;;;;;5021662;28;20220;-85
2022/04/12 06:47:35;;;;;;;10.90;4.80;;;15.60;44.20;;;;;;5022395;28;20183;-86
2022/04/12 06:50:01;;;;;;;6.00;4.32;;;15.50;44.40;;;;;;5023427;28;20238;-85
2022/04/12 06:52:27;;;;;;;5.60;4.07;;;15.40;44.80;;;;;;5034900;28;20189;-86
2022/04/12 06:54:53;;;;;;;8.60;4.30;;;15.40;45.30;;;;;;5024176;28;20449;-87
2022/04/12 06:57:19;;;;;;;5.10;3.83;;;15.40;45.30;;;;;;5022899;28;20182;-86
2022/04/12 06:59:44;;;;;;;4.17;3.67;;;15.20;46.00;;;;;;5022579;28;20467;-86
2022/04/12 07:02:10;;;;;;;5.30;4.50;;;15.20;46.40;;;;;;5022763;28;20189;-87
2022/04/12 07:04:36;;;;;;;8.90;4.47;;;15.00;47.50;;;;;;5022375;28;20637;-86
2022/04/12 07:07:03;;;;;;;6.77;4.63;;;14.90;48.30;;;;;;5020658;28;20186;-86
2022/04/12 07:09:29;;;;;;;5.50;3.85;;;14.90;48.30;;;;;;5020766;28;20473;-85
2022/04/12 07:11:59;;;;;;;5.63;4.63;;;14.80;49.20;;;;;;5004283;28;20186;-86
2022/04/12 07:14:26;;;;;;;7.57;4.15;;;14.80;48.90;;;;;;5021259;28;20193;-86
2022/04/12 07:16:52;;;;;;;4.85;4.05;;;14.70;49.80;;;;;;5020903;28;20178;-85
2022/04/12 07:19:18;;;;;;;5.83;4.27;;;14.70;50.20;;;;;;5021542;28;20213;-86
2022/04/12 07:21:44;;;;;;;7.13;4.90;;;14.60;50.30;;;;;;5039139;28;20210;-85
2022/04/12 07:24:10;;;;;;;5.30;3.90;;;14.40;50.40;;;;;;5019251;28;20203;-86
2022/04/12 07:26:36;;;;;;;6.20;5.43;;;14.40;51.10;;;;;;5004779;28;20175;-86
2022/04/12 07:29:03;;;;;;;10.65;4.82;;;14.30;51.10;;;;;;5006673;28;20187;-85
2022/04/12 07:31:29;;;;;;;6.78;4.45;;;14.20;51.50;;;;;;5031501;28;20179;-85
2022/04/12 07:33:55;;;;;;;6.78;3.88;;;14.20;51.90;;;;;;5008259;28;20199;-86
2022/04/12 07:36:21;;;;;;;7.60;5.33;;;14.10;52.30;;;;;;5003218;28;20194;-87
2022/04/12 07:38:48;;;;;;;5.93;3.95;;;14.10;52.50;;;;;;5004712;28;20432;-87
2022/04/12 07:41:15;;;;;;;5.10;4.40;;;14.10;52.70;;;;;;5002713;28;20175;-85
2022/04/12 07:43:47;;;;;;;5.32;4.82;;;14.10;53.10;;;;;;5005436;28;20179;-85
2022/04/12 07:46:13;;;;;;;11.55;4.97;;;14.20;53.00;;;;;;5007608;28;20226;-85
2022/04/12 07:48:43;;;;;;;6.55;4.45;;;14.20;53.00;;;;;;5030217;28;20199;-84
2022/04/12 07:51:09;;;;;;;7.45;4.78;;;14.20;53.30;;;;;;5036629;28;20203;-85
2022/04/12 07:53:36;;;;;;;10.10;4.97;;;14.10;53.50;;;;;;5037632;28;20206;-84
2022/04/12 07:56:02;;;;;;;8.70;4.70;;;14.10;53.90;;;;;;5038191;28;20203;-84
2022/04/12 07:58:28;;;;;;;10.13;4.95;;;14.10;53.90;;;;;;5029160;28;20237;-84
2022/04/12 08:00:54;;;;;;;4.73;4.27;;;14.00;54.30;;;;;;5030326;28;20183;-85
2022/04/12 08:03:21;;;;;;;4.47;4.00;;;14.00;54.30;;;;;;5013215;28;20863;-86
2022/04/12 08:05:48;;;;;;;5.57;4.25;;;14.10;54.50;;;;;;5012094;28;20194;-86
2022/04/12 08:08:14;;;;;;;4.40;4.07;;;14.20;54.40;;;;;;5027292;28;20241;-84
2022/04/12 08:10:39;;;;;;;4.80;3.53;;;14.30;54.30;;;;;;5041211;28;20256;-87
2022/04/12 08:13:05;;;;;;;8.50;4.77;;;14.40;54.10;;;;;;5025178;28;20414;-86
2022/04/12 08:15:31;;;;;;;8.90;4.07;;;14.50;53.90;;;;;;5041706;28;20202;-86
2022/04/12 08:17:57;;;;;;;6.13;4.83;;;14.70;53.70;;;;;;5041055;28;20619;-86
2022/04/12 08:20:23;;;;;;;6.87;4.57;;;14.70;53.80;;;;;;5043024;28;20224;-87
2022/04/12 08:22:49;;;;;;;13.83;7.30;;;14.80;53.80;;;;;;5051760;28;20448;-86
2022/04/12 08:25:15;;;;;;;13.80;4.90;;;14.90;53.70;;;;;;5052680;28;20451;-85
2022/04/12 08:27:41;;;;;;;4.80;4.40;;;14.90;53.90;;;;;;5054668;28;20268;-85
2022/04/12 08:30:07;;;;;;;5.27;4.23;;;15.00;53.80;;;;;;5049212;28;21110;-86
2022/04/12 08:32:37;;;;;;;6.05;4.38;;;15.00;53.70;;;;;;5038244;28;20223;-83
2022/04/12 08:35:04;;;;;;;4.97;3.95;;;15.00;53.90;;;;;;5039372;28;20194;-84
2022/04/12 08:37:30;;;;;;;6.00;3.80;;;15.10;54.80;;;;;;5038059;28;20242;-87
2022/04/12 08:39:56;;;;;;;4.53;3.80;;;15.20;53.50;;;;;;5037575;28;20302;-83
2022/04/12 08:42:21;;;;;;;7.28;4.20;;;15.30;53.50;;;;;;5034766;28;20187;-85
2022/04/12 08:44:49;;;;;;;4.33;3.93;;;15.30;53.70;;;;;;5034359;28;20202;-84
2022/04/12 08:47:18;;;;;;;4.25;3.65;;;15.30;53.50;;;;;;5026497;28;20221;-85
2022/04/12 08:49:44;;;;;;;4.50;3.85;;;15.30;54.00;;;;;;5019076;28;20202;-86
2022/04/12 08:52:11;;;;;;;6.40;3.55;;;15.50;54.10;;;;;;5018779;28;20166;-85
2022/04/12 08:54:39;;;;;;;7.95;4.78;;;15.60;53.30;;;;;;5021310;28;20714;-84
2022/04/12 08:57:05;;;;;;;4.88;3.20;;;15.70;53.20;;;;;;5026075;28;20167;-87
2022/04/12 08:59:30;;;;;;;7.90;4.40;;;15.80;53.30;;;;;;5035968;28;20187;-87
2022/04/12 09:02:00;;;;;;;8.80;4.00;;;15.90;52.70;;;;;;5035115;28;20416;-86
2022/04/12 09:04:27;;;;;;;9.30;3.92;;;15.90;52.30;;;;;;5032709;28;20215;-85
2022/04/12 09:06:57;;;;;;;6.13;4.30;;;16.00;52.50;;;;;;5024831;28;20182;-83
2022/04/12 09:09:27;;;;;;;4.80;3.63;;;15.90;52.10;;;;;;5018020;28;20226;-84
2022/04/12 09:12:05;;;;;;;6.32;3.78;;;16.00;52.20;;;;;;4999865;28;20269;-85
2022/04/12 09:14:56;;;;;;;6.43;3.78;;;16.00;52.20;;;;;;5016141;28;20194;-84
2022/04/12 09:17:29;;;;;;;5.13;4.07;;;16.20;52.50;;;;;;5017868;28;20249;-83
2022/04/12 09:19:55;;;;;;;6.18;4.15;;;16.30;51.90;;;;;;5018230;28;20209;-84
2022/04/12 09:22:27;;;;;;;13.00;4.03;;;16.40;51.70;;;;;;5017301;28;20194;-84
2022/04/12 09:24:59;;;;;;;4.18;3.30;;;16.40;51.60;;;;;;5017840;28;20452;-86
2022/04/12 09:27:29;;;;;;;7.28;4.18;;;16.60;51.30;;;;;;5018489;28;20225;-85
2022/04/12 09:30:16;;;;;;;4.47;4.05;;;16.70;51.20;;;;;;5018889;28;20198;-84
2022/04/12 09:32:46;;;;;;;8.27;3.65;;;16.80;50.80;;;;;;5017147;28;20179;-84
2022/04/12 09:35:12;;;;;;;4.78;4.07;;;16.90;50.70;;;;;;5020879;28;20279;-85
2022/04/12 09:37:40;;;;;;;11.00;4.55;;;17.10;50.70;;;;;;5018564;28;20214;-84
2022/04/12 09:40:13;;;;;;;9.43;5.05;;;17.20;50.30;;;;;;5019385;28;20190;-86
2022/04/12 09:42:43;;;;;;;9.80;4.35;;;17.30;50.50;;;;;;5021027;28;20194;-83
2022/04/12 09:45:14;;;;;;;3.72;3.38;;;17.40;49.90;;;;;;5023220;28;20222;-84
2022/04/12 09:47:41;;;;;;;5.97;3.40;;;17.50;50.00;;;;;;5026804;28;20270;-83
2022/04/12 09:50:09;;;;;;;5.05;2.95;;;17.60;49.90;;;;;;4999402;28;20206;-85
2022/04/12 09:52:35;;;;;;;4.18;3.30;;;17.70;49.60;;;;;;4995864;28;20190;-86
2022/04/12 09:55:01;;;;;;;7.50;3.97;;;17.80;48.90;;;;;;4996418;28;20217;-84
2022/04/12 09:57:27;;;;;;;6.53;3.90;;;17.90;49.00;;;;;;4999323;28;20426;-85
2022/04/12 09:59:57;;;;;;;10.83;4.30;;;17.90;49.00;;;;;;4997427;28;20874;-83
2022/04/12 10:02:25;;;;;;;6.97;3.53;;;18.00;48.40;;;;;;4995935;28;20175;-86
2022/04/12 10:04:52;;;;;;;4.80;3.30;;;18.00;48.50;;;;;;4997647;28;20209;-86
2022/04/12 10:07:20;;;;;;;8.25;4.80;;;18.10;48.80;;;;;;5014207;28;20175;-85
2022/04/12 10:09:51;;;;;;;4.18;3.78;;;18.20;48.40;;;;;;5033042;28;20217;-87
2022/04/12 10:12:18;;;;;;;3.85;3.38;;;18.30;48.30;;;;;;5043397;28;20182;-86
2022/04/12 10:14:47;;;;;;;9.88;4.00;;;18.40;48.30;;;;;;5051900;28;20194;-87
2022/04/12 10:17:14;;;;;;;5.90;3.70;;;18.60;47.90;;;;;;5052883;28;20167;-87
2022/04/12 10:19:42;;;;;;;5.72;3.63;;;18.70;47.90;;;;;;5053332;28;20242;-87
2022/04/12 10:22:08;;;;;;;4.75;3.00;;;18.80;47.50;;;;;;5037005;28;20229;-87
2022/04/12 10:24:36;;;;;;;11.00;4.00;;;18.80;47.60;;;;;;5036636;28;20202;-84
2022/04/12 10:27:03;;;;;;;8.00;3.88;;;18.90;47.20;;;;;;5051607;28;20175;-86
2022/04/12 10:29:28;;;;;;;10.10;3.72;;;18.80;46.90;;;;;;5053117;28;20286;-85
2022/04/12 10:32:00;;;;;;;10.33;3.37;;;18.90;46.70;;;;;;5034461;28;20209;-86
2022/04/12 10:34:26;;;;;;;9.88;3.53;;;18.90;46.70;;;;;;5040949;28;20298;-86
2022/04/12 10:36:54;;;;;;;16.47;3.40;;;18.90;46.40;;;;;;5050388;28;20205;-84
2022/04/12 10:39:42;;;;;;;7.55;3.20;;;19.00;46.20;;;;;;5050786;28;20540;-85
2022/04/12 10:42:11;;;;;;;4.75;3.00;;;19.10;45.60;;;;;;5039502;28;20182;-85
2022/04/12 10:44:50;;;;;;;7.75;3.10;;;19.10;45.40;;;;;;5032690;28;20218;-83
2022/04/12 10:47:35;;;;;;;7.15;3.20;;;19.10;46.40;;;;;;5014607;28;20173;-85
2022/04/12 10:50:05;;;;;;;4.60;2.97;;;19.20;45.80;;;;;;5016379;28;20220;-84
2022/04/12 10:52:36;;;;;;;7.88;3.10;;;19.30;45.40;;;;;;5016493;28;20262;-85
2022/04/12 10:55:04;;;;;;;4.63;3.17;;;19.20;45.00;;;;;;5014532;28;20233;-85
2022/04/12 10:57:30;;;;;;;4.07;2.88;;;19.30;45.00;;;;;;5017984;28;20202;-85
2022/04/12 11:00:11;;;;;;;5.85;2.75;;;19.30;44.40;;;;;;5025362;28;20202;-86
2022/04/12 11:02:45;;;;;;;3.92;2.20;;;19.40;44.60;;;;;;5012910;28;20170;-83
2022/04/12 11:05:33;;;;;;;6.07;2.65;;;19.50;45.20;;;;;;5020354;28;20301;-84
2022/04/12 11:08:00;;;;;;;4.63;2.88;;;19.60;45.10;;;;;;5014062;28;20178;-84
2022/04/12 11:10:26;;;;;;;4.50;2.90;;;19.70;44.70;;;;;;5013510;28;20206;-85
2022/04/12 11:13:10;;;;;;;5.53;3.10;;;19.80;43.90;;;;;;4998981;28;20673;-88
2022/04/12 11:15:40;;;;;;;5.35;2.53;;;19.80;44.00;;;;;;5015300;28;20206;-87
2022/04/12 11:18:09;;;;;;;6.33;2.87;;;20.00;43.80;;;;;;5033289;28;20196;-86
2022/04/12 11:20:39;;;;;;;3.63;2.60;;;20.10;44.10;;;;;;5016843;28;20417;-88
2022/04/12 11:23:13;;;;;;;7.63;3.05;;;20.10;43.90;;;;;;5028507;28;20445;-85
2022/04/12 11:25:50;;;;;;;6.05;3.17;;;20.00;42.50;;;;;;5035466;28;20202;-83
2022/04/12 11:28:24;;;;;;;7.90;3.10;;;20.10;42.20;;;;;;5037500;28;20245;-84
2022/04/12 11:30:58;;;;;;;2.53;2.20;;;20.20;41.60;;;;;;5037589;28;20214;-89
2022/04/12 11:33:29;;;;;;;6.07;2.65;;;20.20;41.60;;;;;;5019464;28;20170;-88
2022/04/12 11:35:58;;;;;;;5.55;2.30;;;20.30;41.90;;;;;;5023094;28;20202;-88
2022/04/12 11:38:25;;;;;;;4.87;2.50;;;20.40;41.80;;;;;;5019716;28;20178;-86
2022/04/12 11:40:51;;;;;;;3.33;2.70;;;20.50;41.30;;;;;;5018786;28;20422;-88
2022/04/12 11:43:35;;;;;;;9.00;2.67;;;20.40;41.20;;;;;;5018495;28;20451;-86
2022/04/12 11:46:01;;;;;;;6.68;2.40;;;20.50;41.40;;;;;;5020833;28;20497;-85
2022/04/12 11:48:32;;;;;;;3.97;2.53;;;20.60;40.50;;;;;;5022731;28;20485;-86
2022/04/12 11:51:02;;;;;;;12.93;2.97;;;20.70;40.60;;;;;;5021149;28;20433;-85
2022/04/12 11:53:28;;;;;;;5.60;3.37;;;20.80;39.80;;;;;;5018924;28;20448;-87
2022/04/12 11:56:04;;;;;;;4.67;3.10;;;20.70;40.00;;;;;;5003182;28;20528;-89
2022/04/12 11:58:30;;;;;;;9.82;3.10;;;20.70;40.20;;;;;;5019697;28;20187;-89
2022/04/12 12:00:57;;;;;;;6.45;2.80;;;20.70;40.10;;;;;;5020694;28;20558;-88
2022/04/12 12:03:24;;;;;;;4.37;3.07;;;20.60;40.60;;;;;;5020961;28;20193;-86
2022/04/12 12:05:50;;;;;;;33.77;5.40;;;20.80;40.20;;;;;;5020608;28;20449;-87
2022/04/12 12:08:20;;;;;;;13.93;3.43;;;20.80;40.10;;;;;;5040454;28;20421;-87
2022/04/12 12:10:46;;;;;;;13.30;4.00;;;20.80;39.10;;;;;;5040978;28;20519;-87
2022/04/12 12:13:13;;;;;;;3.53;2.33;;;20.90;39.70;;;;;;5046593;28;20416;-84
2022/04/12 12:15:39;;;;;;;5.43;3.63;;;21.00;39.60;;;;;;5053577;28;20437;-83
2022/04/12 12:18:07;;;;;;;8.93;3.43;;;21.00;39.50;;;;;;5038030;28;20425;-85
2022/04/12 12:20:35;;;;;;;6.57;3.20;;;21.00;39.60;;;;;;5048794;28;20422;-84
2022/04/12 12:23:06;;;;;;;5.83;2.80;;;21.10;39.70;;;;;;5037760;28;20460;-84
2022/04/12 12:25:47;;;;;;;3.93;2.50;;;21.20;40.90;;;;;;5042578;28;20456;-88
2022/04/12 12:28:18;;;;;;;14.03;3.17;;;21.20;40.10;;;;;;5039357;28;20406;-84
2022/04/12 12:30:46;;;;;;;6.30;2.10;;;21.20;39.10;;;;;;5054612;28;20469;-86
2022/04/12 12:33:12;;;;;;;5.83;2.57;;;21.20;38.90;;;;;;5035261;28;20471;-87
2022/04/12 12:35:41;;;;;;;6.00;2.50;;;21.20;38.30;;;;;;5035201;28;20968;-87
2022/04/12 12:38:08;;;;;;;3.93;2.20;;;21.20;38.40;;;;;;5035394;28;20429;-87
2022/04/12 12:40:36;;;;;;;4.50;2.20;;;21.10;38.50;;;;;;5035559;28;20429;-87
2022/04/12 12:43:04;;;;;;;10.13;2.93;;;21.10;39.00;;;;;;5035271;28;20445;-88
2022/04/12 12:45:30;;;;;;;4.97;2.80;;;21.00;38.40;;;;;;5035046;28;20457;-86
2022/04/12 12:47:57;;;;;;;3.60;2.57;;;21.00;38.60;;;;;;5019772;28;20775;-87
2022/04/12 12:50:25;;;;;;;6.67;2.60;;;21.00;38.30;;;;;;5018679;28;20469;-89